Terminal Aerodrome Forecast
Issued by NWS

Home | Current Version | Previous Version | Text Only | Print | Product List | Glossary On
Versions: 1 2 3 4 5 6 7 8 9 10 11 12 13 14 15 16 17 18 19 20 21 22 23 24 25 26 27
037
FTUS41 KBUF 270259 AAA
TAFJHW
TAF AMD
KJHW 270259Z 2703/2724 27003KT P6SM FEW010 OVC045
     FM270400 VRB03KT P6SM -DZ OVC012
     FM270700 00000KT 1/2SM -DZ FG OVC003
     FM271400 00000KT 1SM -DZ BR OVC007
     FM271600 VRB03KT P6SM -DZ OVC012
     FM271700 01005KT P6SM BKN015
      AMD LTD TO CLD VIS AND WIND=

USA.gov is the U.S. government's official web portal to all federal, state and local government web resources and services.